FLE2710 CYEG-MMUN
Flight info
| Callsign | FLE2710 |
|---|---|
| Flight time | N/A |
| Altitude | 35000 |
| Route | OMROD DCT IGVUX DCT TOVIS DCT DAPOP DCT GGW DCT RAP DCT YANKI DCT HUSKA DCT STAGE DCT LEV L214 IRDOV UL214 NUDIS UT38 LEVAT UM782 VOMAR VOMAR1A |
| Aircraft | B38M/M-SDE1FGHILORVWXY/HB1 |
Departure
| Time | 2026-05-06 02:01 |
|---|---|
| Airport | Edmonton International Airport (CYEG) |
Arrival
| Time | N/A |
|---|---|
| Airport | Cancún International Airport (MMUN) |
| Time | Latitude | Longitude | Altitude | Speed | Heading |
|---|---|---|---|---|---|
| 2026-05-06 01:42 | 53.30433 | -113.58169 | 2386 ft | 0 kts | 44° |
| 2026-05-06 01:52 | 53.30430 | -113.58174 | 2386 ft | 2 kts | 43° |
| 2026-05-06 01:52 | 53.30415 | -113.58195 | 2395 ft | 3 kts | 37° |
| 2026-05-06 01:52 | 53.30399 | -113.58214 | 2391 ft | 3 kts | 30° |
| 2026-05-06 01:52 | 53.30381 | -113.58230 | 2386 ft | 3 kts | 21° |
| 2026-05-06 01:53 | 53.30362 | -113.58239 | 2386 ft | 3 kts | 7° |
| 2026-05-06 01:53 | 53.30343 | -113.58239 | 2388 ft | 3 kts | 341° |
| 2026-05-06 01:53 | 53.30331 | -113.58228 | 2392 ft | 1 kts | 315° |
| 2026-05-06 01:56 | 53.30333 | -113.58232 | 2388 ft | 2 kts | 308° |
| 2026-05-06 01:56 | 53.30331 | -113.58272 | 2386 ft | 6 kts | 236° |
| 2026-05-06 01:56 | 53.30290 | -113.58343 | 2386 ft | 9 kts | 226° |
| 2026-05-06 01:56 | 53.30257 | -113.58435 | 2386 ft | 10 kts | 272° |
| 2026-05-06 01:57 | 53.30290 | -113.58532 | 2386 ft | 10 kts | 313° |
| 2026-05-06 01:57 | 53.30340 | -113.58617 | 2389 ft | 11 kts | 315° |
| 2026-05-06 01:57 | 53.30394 | -113.58707 | 2388 ft | 12 kts | 315° |
| 2026-05-06 01:57 | 53.30457 | -113.58813 | 2388 ft | 14 kts | 314° |
| 2026-05-06 01:58 | 53.30527 | -113.58930 | 2388 ft | 15 kts | 315° |
| 2026-05-06 01:58 | 53.30600 | -113.59050 | 2388 ft | 15 kts | 315° |
| 2026-05-06 01:58 | 53.30675 | -113.59176 | 2386 ft | 15 kts | 314° |
| 2026-05-06 01:58 | 53.30753 | -113.59304 | 2390 ft | 16 kts | 316° |
| 2026-05-06 01:59 | 53.30835 | -113.59434 | 2390 ft | 16 kts | 315° |
| 2026-05-06 01:59 | 53.30899 | -113.59559 | 2389 ft | 11 kts | 322° |
| 2026-05-06 01:59 | 53.30956 | -113.59545 | 2390 ft | 0 kts | 34° |
| 2026-05-06 01:59 | 53.30957 | -113.59544 | 2390 ft | 0 kts | 34° |
| 2026-05-06 02:00 | 53.30998 | -113.59498 | 2389 ft | 32 kts | 34° |
| 2026-05-06 02:00 | 53.31390 | -113.59038 | 2387 ft | 104 kts | 35° |
| 2026-05-06 02:00 | 53.32145 | -113.58156 | 2390 ft | 163 kts | 35° |
| 2026-05-06 02:00 | 53.33196 | -113.56949 | 2564 ft | 201 kts | 35° |
| 2026-05-06 02:01 | 53.34414 | -113.55654 | 3422 ft | 207 kts | 33° |
| 2026-05-06 02:01 | 53.35606 | -113.54347 | 4358 ft | 210 kts | 37° |
| 2026-05-06 02:01 | 53.36860 | -113.52786 | 4684 ft | 239 kts | 37° |
| 2026-05-06 02:01 | 53.38223 | -113.51109 | 5500 ft | 241 kts | 37° |
| 2026-05-06 02:02 | 53.39619 | -113.49435 | 6237 ft | 255 kts | 35° |
| 2026-05-06 02:02 | 53.41071 | -113.47571 | 6804 ft | 271 kts | 46° |
| 2026-05-06 02:02 | 53.42106 | -113.44964 | 7747 ft | 271 kts | 66° |
| 2026-05-06 02:02 | 53.42561 | -113.41866 | 8537 ft | 279 kts | 82° |
| 2026-05-06 02:03 | 53.42724 | -113.38609 | 9393 ft | 283 kts | 85° |
| 2026-05-06 02:03 | 53.42483 | -113.35299 | 10193 ft | 292 kts | 105° |
| 2026-05-06 02:03 | 53.41580 | -113.32145 | 10633 ft | 313 kts | 123° |
| 2026-05-06 02:03 | 53.39954 | -113.29565 | 10958 ft | 335 kts | 149° |
| 2026-05-06 02:04 | 53.37755 | -113.28253 | 11414 ft | 349 kts | 166° |
| 2026-05-06 02:04 | 53.35370 | -113.27134 | 11932 ft | 359 kts | 162° |
| 2026-05-06 02:04 | 53.32965 | -113.25915 | 12607 ft | 365 kts | 162° |
| 2026-05-06 02:04 | 53.30484 | -113.24646 | 13235 ft | 372 kts | 162° |
| 2026-05-06 02:05 | 53.27994 | -113.23366 | 13894 ft | 377 kts | 162° |
| 2026-05-06 02:05 | 53.25465 | -113.22064 | 14427 ft | 384 kts | 162° |
| 2026-05-06 02:05 | 53.22892 | -113.20741 | 15011 ft | 389 kts | 161° |
| 2026-05-06 02:05 | 53.20320 | -113.19421 | 15543 ft | 394 kts | 161° |
| 2026-05-06 02:06 | 53.17681 | -113.18067 | 16097 ft | 399 kts | 161° |
| 2026-05-06 02:06 | 53.15010 | -113.16699 | 16633 ft | 404 kts | 161° |
| 2026-05-06 02:06 | 53.12304 | -113.15315 | 17170 ft | 409 kts | 161° |
| 2026-05-06 02:06 | 53.09565 | -113.13916 | 17679 ft | 415 kts | 161° |
| 2026-05-06 02:07 | 53.06787 | -113.12500 | 18207 ft | 419 kts | 161° |
| 2026-05-06 02:07 | 53.03981 | -113.11070 | 18678 ft | 424 kts | 161° |
| 2026-05-06 02:07 | 53.01243 | -113.09251 | 19113 ft | 422 kts | 144° |
| 2026-05-06 02:07 | 52.98936 | -113.06317 | 19564 ft | 417 kts | 131° |
| 2026-05-06 02:08 | 52.96794 | -113.03021 | 19963 ft | 422 kts | 131° |
| 2026-05-06 02:08 | 52.94660 | -112.99660 | 20438 ft | 424 kts | 130° |
| 2026-05-06 02:08 | 52.92519 | -112.96244 | 20885 ft | 428 kts | 130° |
| 2026-05-06 02:08 | 52.90373 | -112.92796 | 21342 ft | 430 kts | 130° |
| 2026-05-06 02:09 | 52.88220 | -112.89326 | 21778 ft | 434 kts | 130° |
| 2026-05-06 02:09 | 52.86049 | -112.85828 | 22218 ft | 437 kts | 130° |
| 2026-05-06 02:09 | 52.83890 | -112.82351 | 22650 ft | 440 kts | 130° |
| 2026-05-06 02:09 | 52.81692 | -112.78817 | 23074 ft | 443 kts | 130° |
| 2026-05-06 02:10 | 52.79470 | -112.75248 | 23505 ft | 446 kts | 130° |
| 2026-05-06 02:10 | 52.77308 | -112.71579 | 23888 ft | 443 kts | 121° |
| 2026-05-06 02:10 | 52.75658 | -112.67350 | 24217 ft | 438 kts | 113° |
| 2026-05-06 02:10 | 52.74069 | -112.63013 | 24515 ft | 442 kts | 113° |
| 2026-05-06 02:11 | 52.72490 | -112.58667 | 24883 ft | 444 kts | 113° |
| 2026-05-06 02:11 | 52.70899 | -112.54266 | 25215 ft | 447 kts | 112° |
| 2026-05-06 02:11 | 52.69309 | -112.49862 | 25554 ft | 449 kts | 112° |
| 2026-05-06 02:11 | 52.67707 | -112.45431 | 25891 ft | 451 kts | 112° |
| 2026-05-06 02:12 | 52.66092 | -112.40973 | 26234 ft | 453 kts | 112° |
| 2026-05-06 02:12 | 52.64472 | -112.36507 | 26557 ft | 455 kts | 112° |
| 2026-05-06 02:12 | 52.62840 | -112.32014 | 26881 ft | 458 kts | 112° |
| 2026-05-06 02:12 | 52.61199 | -112.27506 | 27201 ft | 460 kts | 112° |
| 2026-05-06 02:13 | 52.59552 | -112.22990 | 27514 ft | 462 kts | 112° |
| 2026-05-06 02:13 | 52.57892 | -112.18447 | 27818 ft | 464 kts | 112° |
| 2026-05-06 02:13 | 52.56244 | -112.13943 | 28112 ft | 466 kts | 112° |
| 2026-05-06 02:13 | 52.54567 | -112.09369 | 28422 ft | 468 kts | 112° |
| 2026-05-06 02:14 | 52.52881 | -112.04780 | 28723 ft | 470 kts | 112° |
| 2026-05-06 02:14 | 52.51187 | -112.00177 | 29013 ft | 472 kts | 112° |
| 2026-05-06 02:14 | 52.49483 | -111.95555 | 29286 ft | 474 kts | 112° |
| 2026-05-06 02:14 | 52.47771 | -111.90918 | 29579 ft | 476 kts | 112° |
| 2026-05-06 02:15 | 52.46045 | -111.86256 | 29854 ft | 478 kts | 112° |
| 2026-05-06 02:15 | 52.44311 | -111.81579 | 30133 ft | 480 kts | 112° |
| 2026-05-06 02:15 | 52.42574 | -111.76900 | 30373 ft | 482 kts | 111° |
| 2026-05-06 02:15 | 52.40822 | -111.72191 | 30602 ft | 484 kts | 111° |
| 2026-05-06 02:16 | 52.39064 | -111.67475 | 30834 ft | 485 kts | 111° |
| 2026-05-06 02:16 | 52.37321 | -111.62809 | 31045 ft | 487 kts | 111° |
| 2026-05-06 02:16 | 52.35549 | -111.58073 | 31262 ft | 489 kts | 111° |
| 2026-05-06 02:16 | 52.33769 | -111.53324 | 31475 ft | 491 kts | 111° |
| 2026-05-06 02:17 | 52.31978 | -111.48557 | 31692 ft | 492 kts | 111° |
| 2026-05-06 02:17 | 52.30182 | -111.43783 | 31886 ft | 494 kts | 111° |
| 2026-05-06 02:17 | 52.28374 | -111.38987 | 32100 ft | 496 kts | 111° |
| 2026-05-06 02:17 | 52.26561 | -111.34186 | 32315 ft | 497 kts | 111° |
| 2026-05-06 02:18 | 52.24739 | -111.29369 | 32514 ft | 499 kts | 111° |
| 2026-05-06 02:18 | 52.22911 | -111.24541 | 32712 ft | 501 kts | 111° |
| 2026-05-06 02:18 | 52.21075 | -111.19707 | 32967 ft | 501 kts | 112° |
| 2026-05-06 02:18 | 52.18942 | -111.15114 | 33239 ft | 518 kts | 126° |